Time;durP1;ratioP1;P1;durP2;ratioP2;P2;SDS_P1;SDS_P2;PMS_P1;PMS_P2;Temp;Humidity;BMP_temperature;BMP_pressure;BME280_temperature;BME280_humidity;BME280_pressure;Samples;Min_cycle;Max_cycle;Signal;HPM_P1;HPM_P2
2022/06/20 00:01:06;;;;;;;9.20;6.60;;;;;;;;;;4993937;28;20175;-79
2022/06/20 00:03:35;;;;;;;8.60;6.05;;;;;;;;;;4990892;28;20190;-79
2022/06/20 00:06:00;;;;;;;12.88;6.70;;;;;;;;;;4993760;28;20180;-79
2022/06/20 00:08:25;;;;;;;9.68;6.88;;;;;;;;;;5009458;28;20185;-79
2022/06/20 00:10:51;;;;;;;6.55;5.65;;;;;;;;;;4993539;28;20190;-79
2022/06/20 00:13:26;;;;;;;11.57;6.68;;;;;;;;;;4990560;28;20234;-78
2022/06/20 00:15:52;;;;;;;6.72;6.05;;;;;;;;;;4992345;28;20197;-78
2022/06/20 00:18:18;;;;;;;12.90;7.10;;;;;;;;;;4989028;28;20176;-79
2022/06/20 00:20:43;;;;;;;8.82;6.05;;;;;;;;;;4993056;28;20211;-78
2022/06/20 00:23:09;;;;;;;9.40;6.25;;;;;;;;;;4982763;28;20187;-78
2022/06/20 00:25:34;;;;;;;11.80;7.00;;;;;;;;;;5007408;28;20179;-78
2022/06/20 00:28:00;;;;;;;9.98;6.25;;;;;;;;;;4990878;28;20180;-79
2022/06/20 00:30:25;;;;;;;9.45;6.70;;;;;;;;;;5006661;28;20246;-78
2022/06/20 00:32:51;;;;;;;15.80;6.68;;;;;;;;;;5004608;28;20207;-78
2022/06/20 00:35:16;;;;;;;11.18;5.78;;;;;;;;;;4991824;28;20175;-79
2022/06/20 00:37:42;;;;;;;12.68;6.03;;;;;;;;;;4978370;28;20225;-78
2022/06/20 00:40:19;;;;;;;9.70;5.20;;;;;;;;;;4990025;28;20240;-78
2022/06/20 00:42:45;;;;;;;9.07;5.05;;;;;;;;;;4972621;28;20270;-78
2022/06/20 00:45:10;;;;;;;10.45;5.22;;;;;;;;;;4970430;28;20245;-78
2022/06/20 00:47:39;;;;;;;8.60;5.22;;;;;;;;;;4964618;28;20185;-79
2022/06/20 00:50:14;;;;;;;10.40;5.53;;;;;;;;;;4969836;28;20176;-78
2022/06/20 00:52:43;;;;;;;11.98;5.53;;;;;;;;;;4966790;28;20188;-78
2022/06/20 00:55:11;;;;;;;10.27;5.07;;;;;;;;;;4969418;28;20188;-78
2022/06/20 00:57:38;;;;;;;13.82;5.63;;;;;;;;;;4967250;28;20188;-78
2022/06/20 01:00:09;;;;;;;7.00;4.88;;;;;;;;;;4970545;28;20174;-78
2022/06/20 01:02:37;;;;;;;11.05;6.20;;;;;;;;;;4968981;28;20181;-78
2022/06/20 01:05:12;;;;;;;10.95;5.65;;;;;;;;;;4969978;28;20239;-78
2022/06/20 01:07:37;;;;;;;12.43;6.07;;;;;;;;;;4969691;28;20204;-78
2022/06/20 01:10:03;;;;;;;17.95;6.05;;;;;;;;;;4969857;28;20188;-79
2022/06/20 01:12:31;;;;;;;6.50;5.43;;;;;;;;;;4969940;28;20187;-78
2022/06/20 01:14:56;;;;;;;8.80;6.80;;;;;;;;;;4968492;28;20204;-78
2022/06/20 01:17:24;;;;;;;6.43;5.22;;;;;;;;;;4969519;28;20212;-78
2022/06/20 01:19:59;;;;;;;13.52;6.15;;;;;;;;;;4965810;28;20248;-78
2022/06/20 01:22:24;;;;;;;11.75;5.88;;;;;;;;;;4969741;28;20250;-78
2022/06/20 01:25:00;;;;;;;8.53;5.23;;;;;;;;;;4962460;28;20193;-78
2022/06/20 01:27:33;;;;;;;14.15;6.30;;;;;;;;;;4967204;28;20513;-78
2022/06/20 01:29:58;;;;;;;12.00;5.82;;;;;;;;;;4970160;28;20275;-78
2022/06/20 01:32:24;;;;;;;8.85;5.25;;;;;;;;;;4970195;28;20272;-78
2022/06/20 01:34:50;;;;;;;11.50;5.57;;;;;;;;;;4969642;28;20214;-78
2022/06/20 01:37:25;;;;;;;9.68;5.65;;;;;;;;;;4965144;28;20223;-78
2022/06/20 01:39:51;;;;;;;12.38;4.93;;;;;;;;;;4971282;28;20180;-78
2022/06/20 01:42:20;;;;;;;11.57;5.13;;;;;;;;;;4965680;28;20181;-78
2022/06/20 01:44:51;;;;;;;10.10;5.20;;;;;;;;;;4969528;28;20246;-78
2022/06/20 01:47:19;;;;;;;11.77;5.65;;;;;;;;;;4971194;28;20220;-78
2022/06/20 01:49:46;;;;;;;7.35;4.70;;;;;;;;;;4968111;28;20188;-78
2022/06/20 01:52:11;;;;;;;8.88;5.53;;;;;;;;;;4969124;28;20335;-78
2022/06/20 01:54:46;;;;;;;13.87;5.37;;;;;;;;;;4963399;28;20260;-78
2022/06/20 01:57:11;;;;;;;8.70;5.53;;;;;;;;;;4967689;28;20510;-79
2022/06/20 01:59:57;;;;;;;11.57;5.32;;;;;;;;;;4972099;28;20252;-78
2022/06/20 02:02:22;;;;;;;10.90;5.68;;;;;;;;;;4972700;28;20251;-79
2022/06/20 02:04:48;;;;;;;7.53;5.18;;;;;;;;;;4973827;28;20181;-78
2022/06/20 02:07:15;;;;;;;9.07;5.32;;;;;;;;;;4974841;28;20188;-78
2022/06/20 02:09:41;;;;;;;13.75;6.13;;;;;;;;;;4973396;28;20185;-78
2022/06/20 02:12:07;;;;;;;6.68;4.95;;;;;;;;;;4971722;28;20218;-78
2022/06/20 02:14:42;;;;;;;10.65;5.13;;;;;;;;;;4972418;28;20229;-78
2022/06/20 02:17:12;;;;;;;8.43;5.43;;;;;;;;;;4972734;28;20235;-79
2022/06/20 02:19:41;;;;;;;6.47;5.10;;;;;;;;;;4972750;28;20211;-78
2022/06/20 02:22:06;;;;;;;9.00;5.05;;;;;;;;;;4974574;28;20181;-78
2022/06/20 02:24:34;;;;;;;12.20;5.50;;;;;;;;;;4973183;28;20251;-78
2022/06/20 02:27:01;;;;;;;9.07;6.03;;;;;;;;;;4973246;28;20193;-78
2022/06/20 02:29:27;;;;;;;10.57;4.75;;;;;;;;;;4972674;28;20181;-78
2022/06/20 02:31:54;;;;;;;10.25;5.00;;;;;;;;;;4972281;28;20185;-78
2022/06/20 02:34:21;;;;;;;7.97;4.63;;;;;;;;;;4972911;28;20500;-78
2022/06/20 02:36:47;;;;;;;8.80;5.30;;;;;;;;;;4972544;28;20223;-78
2022/06/20 02:39:12;;;;;;;8.48;5.50;;;;;;;;;;4973235;28;20177;-78
2022/06/20 02:41:39;;;;;;;9.18;5.00;;;;;;;;;;4972789;28;20177;-78
2022/06/20 02:44:24;;;;;;;11.50;5.75;;;;;;;;;;4973337;28;20188;-78
2022/06/20 02:46:50;;;;;;;11.80;5.57;;;;;;;;;;4986288;28;20199;-79
2022/06/20 02:49:17;;;;;;;13.25;5.05;;;;;;;;;;4989465;28;20180;-78
2022/06/20 02:51:45;;;;;;;15.13;5.38;;;;;;;;;;4990591;28;20188;-78
2022/06/20 02:54:12;;;;;;;10.55;5.68;;;;;;;;;;4978054;28;20207;-78
2022/06/20 02:56:40;;;;;;;8.25;4.57;;;;;;;;;;4988097;28;20187;-78
2022/06/20 02:59:25;;;;;;;7.70;4.65;;;;;;;;;;4992693;28;20200;-78
2022/06/20 03:02:02;;;;;;;6.13;5.28;;;;;;;;;;4994236;28;20228;-78
2022/06/20 03:04:29;;;;;;;9.55;5.05;;;;;;;;;;4979213;28;20186;-78
2022/06/20 03:06:56;;;;;;;8.68;4.57;;;;;;;;;;4980939;28;20284;-78
2022/06/20 03:09:26;;;;;;;8.10;5.25;;;;;;;;;;4991317;28;20192;-78
2022/06/20 03:11:52;;;;;;;9.05;4.65;;;;;;;;;;4990350;28;20296;-78
2022/06/20 03:14:20;;;;;;;8.35;5.38;;;;;;;;;;4976739;28;20303;-78
2022/06/20 03:16:45;;;;;;;12.18;6.22;;;;;;;;;;4975620;28;20252;-79
2022/06/20 03:19:14;;;;;;;7.68;6.07;;;;;;;;;;4990920;28;20263;-78
2022/06/20 03:21:41;;;;;;;14.35;5.28;;;;;;;;;;4972640;28;20177;-78
2022/06/20 03:24:06;;;;;;;9.20;5.90;;;;;;;;;;4974760;28;20182;-78
2022/06/20 03:26:31;;;;;;;7.65;5.85;;;;;;;;;;4976077;28;20191;-77
2022/06/20 03:28:58;;;;;;;10.52;6.22;;;;;;;;;;4977552;28;20348;-77
2022/06/20 03:31:23;;;;;;;10.50;6.75;;;;;;;;;;4983659;28;20188;-77
2022/06/20 03:33:48;;;;;;;9.90;5.63;;;;;;;;;;4991080;28;20211;-78
2022/06/20 03:36:27;;;;;;;9.50;6.70;;;;;;;;;;4973799;28;20173;-77
2022/06/20 03:38:53;;;;;;;13.27;6.68;;;;;;;;;;4975110;28;20176;-76
2022/06/20 03:41:21;;;;;;;7.63;5.90;;;;;;;;;;4990888;28;20181;-77
2022/06/20 03:43:49;;;;;;;11.87;6.27;;;;;;;;;;4976579;28;20191;-77
2022/06/20 03:46:17;;;;;;;9.43;6.17;;;;;;;;;;4972278;28;20258;-77
2022/06/20 03:48:47;;;;;;;9.70;6.83;;;;;;;;;;4969041;28;20410;-78
2022/06/20 03:51:20;;;;;;;8.97;6.07;;;;;;;;;;4965691;28;20182;-77
2022/06/20 03:53:49;;;;;;;8.87;5.80;;;;;;;;;;4970945;28;20216;-77
2022/06/20 03:56:23;;;;;;;8.63;5.53;;;;;;;;;;4969820;28;20176;-77
2022/06/20 03:59:00;;;;;;;11.63;6.93;;;;;;;;;;4967784;28;20183;-77
2022/06/20 04:01:28;;;;;;;13.93;7.50;;;;;;;;;;4970824;28;20251;-78
2022/06/20 04:03:59;;;;;;;9.13;5.73;;;;;;;;;;4972061;28;20197;-78
2022/06/20 04:06:34;;;;;;;7.87;6.03;;;;;;;;;;4969948;28;20189;-77
2022/06/20 04:11:50;;;;;;;8.67;6.10;;;;;;;;;;4972718;28;20213;-77
2022/06/20 04:14:46;;;;;;;11.23;6.07;;;;;;;;;;4966654;28;20230;-78
2022/06/20 04:20:01;;;;;;;7.63;5.27;;;;;;;;;;4971550;28;20213;-77
2022/06/20 04:22:30;;;;;;;7.57;5.60;;;;;;;;;;4970315;28;20192;-78
2022/06/20 04:25:04;;;;;;;8.17;5.07;;;;;;;;;;4971239;28;20192;-77
2022/06/20 04:27:34;;;;;;;9.80;6.67;;;;;;;;;;4969556;28;20249;-77
2022/06/20 04:30:01;;;;;;;9.57;5.83;;;;;;;;;;4971259;28;20181;-78
2022/06/20 04:32:32;;;;;;;12.17;6.20;;;;;;;;;;4969390;28;20262;-78
2022/06/20 04:35:03;;;;;;;13.47;6.30;;;;;;;;;;4965148;28;20211;-77
2022/06/20 04:37:30;;;;;;;8.90;5.93;;;;;;;;;;4969006;28;20638;-78
2022/06/20 04:40:01;;;;;;;7.97;5.97;;;;;;;;;;4970878;28;20170;-77
2022/06/20 04:42:41;;;;;;;15.17;5.67;;;;;;;;;;4971090;28;20180;-78
2022/06/20 04:45:16;;;;;;;20.07;6.73;;;;;;;;;;4965101;28;20227;-78
2022/06/20 04:47:53;;;;;;;13.90;6.80;;;;;;;;;;4970102;28;20183;-77
2022/06/20 04:50:23;;;;;;;11.07;6.07;;;;;;;;;;4968340;28;20249;-77
2022/06/20 04:52:49;;;;;;;7.87;5.87;;;;;;;;;;4967952;28;20201;-77
2022/06/20 04:55:16;;;;;;;6.93;5.70;;;;;;;;;;4970720;28;20179;-78
2022/06/20 04:57:41;;;;;;;10.47;5.73;;;;;;;;;;4972008;28;20191;-78
2022/06/20 05:00:14;;;;;;;9.37;6.20;;;;;;;;;;4968493;28;20211;-76
2022/06/20 05:02:41;;;;;;;10.37;5.43;;;;;;;;;;4966204;28;20191;-82
2022/06/20 05:05:10;;;;;;;8.43;5.47;;;;;;;;;;4968416;28;20273;-84
2022/06/20 05:07:36;;;;;;;7.53;5.90;;;;;;;;;;4969880;28;20188;-83
2022/06/20 05:10:05;;;;;;;9.70;5.40;;;;;;;;;;4969095;28;20183;-82
2022/06/20 05:12:37;;;;;;;8.47;5.30;;;;;;;;;;4970623;28;20178;-83
2022/06/20 05:15:06;;;;;;;11.27;5.97;;;;;;;;;;4971599;28;20191;-83
2022/06/20 05:17:33;;;;;;;11.67;6.87;;;;;;;;;;4968111;28;20220;-83
2022/06/20 05:20:00;;;;;;;9.93;5.93;;;;;;;;;;4961536;28;20215;-83
2022/06/20 05:22:28;;;;;;;8.17;5.73;;;;;;;;;;4970215;28;20279;-83
2022/06/20 05:24:55;;;;;;;10.20;5.97;;;;;;;;;;4967551;28;20183;-83
2022/06/20 05:27:23;;;;;;;7.27;5.30;;;;;;;;;;4969334;28;20667;-83
2022/06/20 05:29:50;;;;;;;8.50;5.73;;;;;;;;;;4969407;28;20186;-83
2022/06/20 05:32:21;;;;;;;11.03;6.07;;;;;;;;;;4970408;28;20186;-83
2022/06/20 05:35:02;;;;;;;10.87;5.43;;;;;;;;;;4974646;28;20249;-83
2022/06/20 05:37:35;;;;;;;7.33;5.87;;;;;;;;;;4973743;28;20197;-84
2022/06/20 05:40:06;;;;;;;9.73;5.60;;;;;;;;;;4974883;28;20174;-83
2022/06/20 05:42:32;;;;;;;9.70;6.00;;;;;;;;;;4973240;28;20468;-83
2022/06/20 05:44:57;;;;;;;13.10;6.33;;;;;;;;;;4973745;28;20323;-83
2022/06/20 05:47:24;;;;;;;8.47;6.73;;;;;;;;;;4972647;28;20214;-83
2022/06/20 05:49:52;;;;;;;10.30;5.67;;;;;;;;;;4972477;28;20234;-83
2022/06/20 05:52:19;;;;;;;7.63;5.47;;;;;;;;;;4973969;28;20202;-84
2022/06/20 05:54:55;;;;;;;8.20;5.83;;;;;;;;;;4971909;28;20235;-83
2022/06/20 05:57:22;;;;;;;8.07;5.53;;;;;;;;;;4974270;28;20179;-83
2022/06/20 05:59:53;;;;;;;9.37;6.07;;;;;;;;;;4969854;28;20200;-84
2022/06/20 06:02:19;;;;;;;11.53;6.30;;;;;;;;;;4972484;28;20215;-83
2022/06/20 06:04:52;;;;;;;6.73;5.70;;;;;;;;;;4973870;28;20271;-83
2022/06/20 06:07:23;;;;;;;7.47;5.20;;;;;;;;;;4986496;28;20339;-83
2022/06/20 06:09:55;;;;;;;58.93;52.77;;;;;;;;;;4979040;28;20188;-83
2022/06/20 06:12:26;;;;;;;10.73;7.23;;;;;;;;;;4979383;28;20194;-83
2022/06/20 06:14:54;;;;;;;8.93;6.00;;;;;;;;;;4977577;28;20235;-83
2022/06/20 06:17:46;;;;;;;8.93;7.30;;;;;;;;;;4981388;28;20218;-84
2022/06/20 06:20:17;;;;;;;11.33;6.63;;;;;;;;;;4969458;28;20180;-83
2022/06/20 06:22:43;;;;;;;10.23;6.60;;;;;;;;;;4975452;28;20195;-83
2022/06/20 06:25:15;;;;;;;8.17;6.63;;;;;;;;;;4971380;28;20936;-83
2022/06/20 06:27:40;;;;;;;8.03;5.50;;;;;;;;;;4972288;28;20183;-84
2022/06/20 06:30:07;;;;;;;9.80;5.00;;;;;;;;;;4977705;28;20200;-84
2022/06/20 06:32:39;;;;;;;11.73;6.37;;;;;;;;;;4971451;28;20188;-84
2022/06/20 06:35:14;;;;;;;8.40;5.90;;;;;;;;;;4990802;28;20215;-83
2022/06/20 06:37:42;;;;;;;6.23;5.63;;;;;;;;;;4971752;28;20287;-83
2022/06/20 06:40:18;;;;;;;9.33;6.63;;;;;;;;;;4972953;28;20187;-83
2022/06/20 06:42:44;;;;;;;7.50;6.03;;;;;;;;;;4983882;28;20206;-83
2022/06/20 06:45:16;;;;;;;11.50;5.70;;;;;;;;;;4973337;28;20232;-84
2022/06/20 06:47:43;;;;;;;11.00;6.30;;;;;;;;;;4971842;28;20187;-84
2022/06/20 06:50:24;;;;;;;6.00;5.40;;;;;;;;;;4970275;28;20181;-84
2022/06/20 06:53:15;;;;;;;7.40;5.10;;;;;;;;;;4973395;28;20257;-84
2022/06/20 06:55:42;;;;;;;6.43;5.83;;;;;;;;;;4950071;28;20417;-84
2022/06/20 06:58:26;;;;;;;7.80;5.28;;;;;;;;;;4979136;28;20231;-84
2022/06/20 07:00:54;;;;;;;7.30;5.70;;;;;;;;;;4973022;28;20184;-84
2022/06/20 07:03:33;;;;;;;7.55;5.40;;;;;;;;;;4972890;28;20192;-83
2022/06/20 07:06:01;;;;;;;7.90;5.90;;;;;;;;;;4970523;28;20180;-84
2022/06/20 07:08:35;;;;;;;7.50;5.63;;;;;;;;;;4971012;28;20181;-84
2022/06/20 07:11:13;;;;;;;6.95;5.38;;;;;;;;;;4986500;28;20199;-83
2022/06/20 07:13:49;;;;;;;8.07;5.93;;;;;;;;;;4972410;28;20204;-83
2022/06/20 07:16:24;;;;;;;9.65;6.85;;;;;;;;;;4973262;28;20223;-85
2022/06/20 07:18:51;;;;;;;9.13;6.25;;;;;;;;;;4968799;28;20176;-85
2022/06/20 07:21:17;;;;;;;7.80;5.70;;;;;;;;;;4969711;28;20192;-83
2022/06/20 07:23:45;;;;;;;7.38;5.65;;;;;;;;;;4966764;28;20186;-84
2022/06/20 07:26:11;;;;;;;9.25;6.68;;;;;;;;;;4965662;28;20212;-84
2022/06/20 07:28:41;;;;;;;8.10;5.82;;;;;;;;;;4968496;28;20276;-85
2022/06/20 07:31:11;;;;;;;8.90;7.10;;;;;;;;;;4970521;28;20273;-83
2022/06/20 07:33:42;;;;;;;7.28;6.20;;;;;;;;;;4985600;28;20215;-84
2022/06/20 07:36:09;;;;;;;8.43;7.10;;;;;;;;;;4963969;28;20191;-83
2022/06/20 07:38:36;;;;;;;10.23;7.00;;;;;;;;;;4981385;28;20210;-84
2022/06/20 07:41:02;;;;;;;9.30;6.65;;;;;;;;;;4970913;28;20208;-85
2022/06/20 07:43:31;;;;;;;11.13;7.23;;;;;;;;;;4971553;28;20176;-83
2022/06/20 07:45:59;;;;;;;12.88;7.70;;;;;;;;;;4971139;28;20244;-84
2022/06/20 07:48:32;;;;;;;9.38;7.20;;;;;;;;;;4971349;28;20200;-84
2022/06/20 07:51:17;;;;;;;11.70;7.72;;;;;;;;;;4969403;28;20185;-83
2022/06/20 07:53:52;;;;;;;9.45;7.18;;;;;;;;;;4966043;28;20217;-83
2022/06/20 07:56:37;;;;;;;8.87;6.10;;;;;;;;;;4970474;28;20176;-84
2022/06/20 07:59:21;;;;;;;9.98;6.75;;;;;;;;;;4970489;28;20192;-84
2022/06/20 08:01:51;;;;;;;10.55;7.50;;;;;;;;;;4969798;28;20212;-84
2022/06/20 08:04:20;;;;;;;9.68;6.30;;;;;;;;;;4971885;28;20177;-83
2022/06/20 08:06:51;;;;;;;9.65;6.40;;;;;;;;;;4971066;28;20180;-82
2022/06/20 08:09:19;;;;;;;11.45;6.65;;;;;;;;;;4971768;28;20204;-84
2022/06/20 08:11:45;;;;;;;12.95;6.45;;;;;;;;;;4970833;28;20191;-83
2022/06/20 08:14:23;;;;;;;11.32;6.95;;;;;;;;;;4980496;28;20497;-84
2022/06/20 08:16:50;;;;;;;11.77;6.95;;;;;;;;;;4970913;28;20180;-83
2022/06/20 08:19:15;;;;;;;8.40;6.50;;;;;;;;;;4969522;28;20196;-83
2022/06/20 08:21:43;;;;;;;8.65;6.78;;;;;;;;;;4971746;28;20176;-83
2022/06/20 08:24:38;;;;;;;9.57;6.97;;;;;;;;;;4969793;28;20188;-82
2022/06/20 08:27:13;;;;;;;11.90;7.13;;;;;;;;;;4957276;28;20193;-85
2022/06/20 08:29:40;;;;;;;9.73;6.65;;;;;;;;;;4970182;28;20242;-83
2022/06/20 08:32:24;;;;;;;12.68;6.75;;;;;;;;;;4971809;28;20184;-83
2022/06/20 08:35:02;;;;;;;7.85;6.07;;;;;;;;;;4967601;28;20197;-83
2022/06/20 08:37:34;;;;;;;9.40;6.60;;;;;;;;;;4970565;28;20204;-82
2022/06/20 08:40:09;;;;;;;10.40;6.40;;;;;;;;;;4970170;28;20181;-84
2022/06/20 08:42:48;;;;;;;9.00;6.53;;;;;;;;;;4971070;28;20272;-84
2022/06/20 08:45:21;;;;;;;8.45;5.80;;;;;;;;;;4969512;28;20243;-83
2022/06/20 08:47:52;;;;;;;18.10;7.00;;;;;;;;;;4971220;28;20255;-83
2022/06/20 08:50:35;;;;;;;7.72;5.90;;;;;;;;;;4967740;28;20173;-84
2022/06/20 08:53:20;;;;;;;7.95;6.18;;;;;;;;;;4967285;28;20203;-83
2022/06/20 08:56:18;;;;;;;7.97;6.65;;;;;;;;;;4967648;28;20200;-83
2022/06/20 08:59:05;;;;;;;11.55;5.05;;;;;;;;;;4935866;28;20232;-83
2022/06/20 09:01:36;;;;;;;9.32;6.95;;;;;;;;;;4950384;28;20203;-83
2022/06/20 09:04:40;;;;;;;9.95;6.65;;;;;;;;;;4969549;28;20181;-82
2022/06/20 09:07:08;;;;;;;11.48;6.55;;;;;;;;;;4929625;29;20218;-83
2022/06/20 09:09:52;;;;;;;8.02;5.68;;;;;;;;;;4923892;29;20217;-84
2022/06/20 09:12:26;;;;;;;7.50;5.45;;;;;;;;;;4956494;28;20288;-84
2022/06/20 09:15:10;;;;;;;11.73;7.22;;;;;;;;;;4969910;28;20216;-83
2022/06/20 09:17:39;;;;;;;8.20;5.90;;;;;;;;;;4969804;28;20181;-82
2022/06/20 09:20:27;;;;;;;8.75;6.10;;;;;;;;;;4970230;28;20187;-82
2022/06/20 09:22:58;;;;;;;10.57;6.53;;;;;;;;;;4942129;28;20279;-82
2022/06/20 09:25:30;;;;;;;10.07;6.38;;;;;;;;;;4970419;28;20204;-82
2022/06/20 09:28:05;;;;;;;13.82;6.82;;;;;;;;;;4970693;28;20183;-84
2022/06/20 09:30:40;;;;;;;11.35;6.25;;;;;;;;;;4970316;28;20208;-82
2022/06/20 09:33:24;;;;;;;8.43;6.60;;;;;;;;;;4968326;28;20509;-82
2022/06/20 09:35:52;;;;;;;6.80;5.82;;;;;;;;;;4968801;28;20188;-84
2022/06/20 09:38:31;;;;;;;10.10;6.13;;;;;;;;;;4967904;28;20224;-84
2022/06/20 09:40:56;;;;;;;13.57;7.03;;;;;;;;;;4966840;28;20185;-83
2022/06/20 09:43:24;;;;;;;6.72;5.95;;;;;;;;;;4970138;28;20188;-83
2022/06/20 09:45:56;;;;;;;12.00;6.28;;;;;;;;;;4969926;28;20232;-82
2022/06/20 09:48:26;;;;;;;7.43;5.72;;;;;;;;;;4965782;28;20185;-83
2022/06/20 09:50:52;;;;;;;10.45;6.75;;;;;;;;;;4969764;28;20276;-82
2022/06/20 09:53:17;;;;;;;12.40;6.40;;;;;;;;;;4985036;28;20307;-84
2022/06/20 09:56:01;;;;;;;7.43;5.45;;;;;;;;;;4969527;28;20192;-83
2022/06/20 09:58:29;;;;;;;8.32;5.80;;;;;;;;;;4969535;28;20180;-83
2022/06/20 10:01:15;;;;;;;16.35;5.22;;;;;;;;;;4970052;28;20205;-82
2022/06/20 10:03:55;;;;;;;6.05;5.03;;;;;;;;;;4969853;28;20203;-82
2022/06/20 10:06:38;;;;;;;9.77;5.45;;;;;;;;;;4969376;28;20185;-83
2022/06/20 10:09:24;;;;;;;7.22;5.45;;;;;;;;;;4968133;28;20192;-84
2022/06/20 10:12:00;;;;;;;8.25;5.80;;;;;;;;;;4970248;28;20204;-83
2022/06/20 10:14:44;;;;;;;6.53;4.82;;;;;;;;;;4968241;28;20236;-83
2022/06/20 10:17:30;;;;;;;9.55;5.68;;;;;;;;;;4966952;28;20176;-83
2022/06/20 10:20:13;;;;;;;9.73;6.15;;;;;;;;;;4971704;28;20223;-82
2022/06/20 10:22:38;;;;;;;9.38;6.30;;;;;;;;;;4972621;28;20482;-83
2022/06/20 10:25:16;;;;;;;7.63;5.93;;;;;;;;;;4974158;28;20188;-84
2022/06/20 10:27:50;;;;;;;8.20;5.35;;;;;;;;;;4969814;28;20184;-83
2022/06/20 10:30:38;;;;;;;8.75;5.65;;;;;;;;;;4974085;28;20231;-83
2022/06/20 10:33:15;;;;;;;7.78;5.72;;;;;;;;;;4988400;28;20445;-82
2022/06/20 10:35:58;;;;;;;5.93;5.20;;;;;;;;;;4974536;28;20350;-84
2022/06/20 10:38:38;;;;;;;8.88;5.68;;;;;;;;;;4973508;28;20188;-82
2022/06/20 10:41:07;;;;;;;9.18;5.97;;;;;;;;;;4972936;28;20184;-83
2022/06/20 10:43:42;;;;;;;5.80;5.13;;;;;;;;;;4966500;28;20195;-83
2022/06/20 10:46:26;;;;;;;7.80;5.47;;;;;;;;;;4973234;28;20232;-81
2022/06/20 10:48:51;;;;;;;6.63;4.70;;;;;;;;;;4971574;28;20227;-84
2022/06/20 10:51:21;;;;;;;6.38;5.07;;;;;;;;;;4977176;28;20208;-83
2022/06/20 10:53:57;;;;;;;5.10;4.38;;;;;;;;;;4973268;28;20200;-83
2022/06/20 10:56:22;;;;;;;6.57;4.53;;;;;;;;;;4972008;28;20180;-83
2022/06/20 10:58:55;;;;;;;8.88;4.43;;;;;;;;;;4971980;28;20184;-84
2022/06/20 11:01:23;;;;;;;6.90;3.97;;;;;;;;;;4972836;28;20208;-82
2022/06/20 11:03:48;;;;;;;4.35;4.00;;;;;;;;;;4970695;28;20247;-81
2022/06/20 11:06:22;;;;;;;4.72;4.22;;;;;;;;;;4972359;28;20207;-83
2022/06/20 11:09:05;;;;;;;7.30;4.75;;;;;;;;;;4972722;28;20261;-83
2022/06/20 11:11:33;;;;;;;6.15;4.28;;;;;;;;;;4972621;28;20185;-83
2022/06/20 11:14:17;;;;;;;5.82;4.32;;;;;;;;;;4972165;28;20255;-82
2022/06/20 11:16:45;;;;;;;6.22;4.25;;;;;;;;;;4972328;28;20242;-82
2022/06/20 11:19:29;;;;;;;7.32;4.10;;;;;;;;;;4972825;28;20173;-83
2022/06/20 11:22:01;;;;;;;4.32;3.30;;;;;;;;;;4969904;28;20584;-82
2022/06/20 11:24:45;;;;;;;4.70;3.63;;;;;;;;;;4972799;28;20191;-83
2022/06/20 11:27:10;;;;;;;5.25;4.18;;;;;;;;;;4970011;28;20267;-82
2022/06/20 11:29:41;;;;;;;3.60;3.08;;;;;;;;;;4971758;28;20272;-82
2022/06/20 11:32:09;;;;;;;4.60;4.20;;;;;;;;;;4963546;28;20682;-81
2022/06/20 11:35:04;;;;;;;7.15;4.03;;;;;;;;;;4972299;28;20216;-83
2022/06/20 11:37:38;;;;;;;5.22;3.75;;;;;;;;;;4958726;28;20344;-83
2022/06/20 11:40:26;;;;;;;4.83;3.27;;;;;;;;;;4967206;28;20379;-82
2022/06/20 11:43:07;;;;;;;6.32;4.35;;;;;;;;;;4969158;28;20188;-82
2022/06/20 11:45:51;;;;;;;6.80;3.77;;;;;;;;;;4982345;28;20227;-83
2022/06/20 11:48:28;;;;;;;6.03;3.70;;;;;;;;;;4968875;28;20204;-82
2022/06/20 11:51:00;;;;;;;5.40;3.80;;;;;;;;;;4973164;28;20188;-83
2022/06/20 11:53:27;;;;;;;5.57;4.10;;;;;;;;;;4972049;28;21400;-83
2022/06/20 11:55:53;;;;;;;4.93;3.50;;;;;;;;;;4970950;28;20173;-83
2022/06/20 11:58:28;;;;;;;4.10;3.72;;;;;;;;;;4972516;28;20260;-83
2022/06/20 12:01:01;;;;;;;3.50;3.17;;;;;;;;;;4970314;28;20180;-82
2022/06/20 12:03:30;;;;;;;5.43;3.80;;;;;;;;;;4968174;28;20180;-83
2022/06/20 12:05:58;;;;;;;4.00;3.60;;;;;;;;;;4967217;28;20181;-83
2022/06/20 12:08:33;;;;;;;6.70;4.28;;;;;;;;;;4971025;28;20188;-82
2022/06/20 12:11:02;;;;;;;6.07;3.63;;;;;;;;;;4971158;28;20192;-83
2022/06/20 12:13:42;;;;;;;5.65;3.78;;;;;;;;;;4971686;28;20205;-82
2022/06/20 12:16:08;;;;;;;5.17;3.00;;;;;;;;;;4968758;28;20236;-83
2022/06/20 12:24:20;;;;;;;3.78;3.40;;;;;;;;;;4970299;28;20188;-83
2022/06/20 12:26:45;;;;;;;5.35;3.45;;;;;;;;;;4971688;28;20205;-83
2022/06/20 12:29:21;;;;;;;4.68;3.22;;;;;;;;;;4970860;28;20207;-82
2022/06/20 12:31:55;;;;;;;3.42;2.70;;;;;;;;;;4980885;28;20216;-84
2022/06/20 12:34:39;;;;;;;2.95;2.30;;;;;;;;;;4971073;28;20208;-83
2022/06/20 12:37:07;;;;;;;2.47;2.28;;;;;;;;;;4969510;28;20204;-83
2022/06/20 12:39:48;;;;;;;3.38;2.70;;;;;;;;;;4967020;28;20183;-82
2022/06/20 12:42:14;;;;;;;3.47;3.00;;;;;;;;;;4968975;28;20181;-82
2022/06/20 12:44:50;;;;;;;3.35;3.03;;;;;;;;;;4972262;28;20239;-82
2022/06/20 12:47:34;;;;;;;4.32;2.80;;;;;;;;;;4972201;28;20196;-83
2022/06/20 12:50:02;;;;;;;5.57;3.78;;;;;;;;;;4967029;28;20386;-82
2022/06/20 12:52:30;;;;;;;10.52;4.38;;;;;;;;;;4969872;28;20207;-84
2022/06/20 12:55:02;;;;;;;8.80;4.68;;;;;;;;;;4972804;28;20222;-84
2022/06/20 12:57:46;;;;;;;7.75;4.75;;;;;;;;;;4963210;28;20177;-82
2022/06/20 13:00:30;;;;;;;7.28;5.03;;;;;;;;;;4968243;28;20184;-82
2022/06/20 13:03:14;;;;;;;9.35;5.90;;;;;;;;;;4969939;28;20311;-83
2022/06/20 13:05:52;;;;;;;6.28;5.55;;;;;;;;;;4970658;28;20342;-84
2022/06/20 13:08:36;;;;;;;7.65;5.13;;;;;;;;;;4965041;28;20199;-83
2022/06/20 13:11:01;;;;;;;7.53;5.43;;;;;;;;;;4970422;28;20192;-82
2022/06/20 13:13:42;;;;;;;7.45;4.53;;;;;;;;;;4967422;28;20247;-83
2022/06/20 13:16:14;;;;;;;7.95;4.95;;;;;;;;;;4971870;28;20176;-84
2022/06/20 13:18:47;;;;;;;5.93;5.32;;;;;;;;;;4964959;28;20180;-83
2022/06/20 13:21:18;;;;;;;7.25;5.32;;;;;;;;;;4972385;28;20193;-83
2022/06/20 13:24:02;;;;;;;8.45;5.22;;;;;;;;;;4970987;28;20293;-82
2022/06/20 13:26:44;;;;;;;5.93;3.92;;;;;;;;;;4963962;28;20181;-83
2022/06/20 13:29:29;;;;;;;6.90;4.32;;;;;;;;;;4970140;28;20194;-83
2022/06/20 13:32:01;;;;;;;6.75;5.60;;;;;;;;;;4968646;28;20188;-84
2022/06/20 13:34:35;;;;;;;5.43;4.95;;;;;;;;;;4970060;28;20279;-83
2022/06/20 13:37:01;;;;;;;7.20;4.75;;;;;;;;;;4967297;28;20200;-83
2022/06/20 13:39:32;;;;;;;6.90;5.93;;;;;;;;;;4970257;28;20204;-84
2022/06/20 13:42:03;;;;;;;8.48;6.22;;;;;;;;;;4965010;28;20212;-82
2022/06/20 13:44:44;;;;;;;9.00;5.95;;;;;;;;;;4971567;28;20185;-84
2022/06/20 13:47:24;;;;;;;7.65;5.28;;;;;;;;;;4992531;28;20187;-84
2022/06/20 13:50:02;;;;;;;6.28;5.72;;;;;;;;;;4976055;28;20182;-82
2022/06/20 13:52:27;;;;;;;6.78;6.18;;;;;;;;;;4976601;28;20179;-84
2022/06/20 13:54:56;;;;;;;9.90;6.63;;;;;;;;;;4974103;28;20292;-83
2022/06/20 13:57:24;;;;;;;7.55;6.68;;;;;;;;;;4977494;28;20226;-84
2022/06/20 13:59:50;;;;;;;5.50;5.00;;;;;;;;;;4978435;28;20180;-82
2022/06/20 14:02:30;;;;;;;8.52;6.45;;;;;;;;;;4975237;28;20185;-83
2022/06/20 14:04:57;;;;;;;7.05;6.35;;;;;;;;;;4975267;28;20180;-84
2022/06/20 14:07:24;;;;;;;4.97;4.57;;;;;;;;;;4977481;28;20184;-82
2022/06/20 14:09:53;;;;;;;7.50;6.07;;;;;;;;;;4982384;28;20284;-82
2022/06/20 14:12:41;;;;;;;5.50;5.03;;;;;;;;;;4977449;28;20202;-84
2022/06/20 14:15:15;;;;;;;6.40;5.13;;;;;;;;;;4992807;28;20271;-83
2022/06/20 14:17:40;;;;;;;8.88;5.82;;;;;;;;;;4976420;28;20187;-84
2022/06/20 14:20:20;;;;;;;7.63;5.95;;;;;;;;;;4973631;28;20176;-83
2022/06/20 14:22:47;;;;;;;8.57;6.88;;;;;;;;;;4975626;28;20331;-83
2022/06/20 14:25:22;;;;;;;7.63;6.20;;;;;;;;;;4977972;28;20184;-83
2022/06/20 14:27:47;;;;;;;5.22;4.60;;;;;;;;;;4974721;28;20190;-83
2022/06/20 14:30:39;;;;;;;5.88;5.20;;;;;;;;;;4976676;28;20195;-77
2022/06/20 14:33:34;;;;;;;6.18;5.57;;;;;;;;;;4970352;28;20196;-79
2022/06/20 14:36:03;;;;;;;7.38;5.03;;;;;;;;;;4966626;28;20280;-80
2022/06/20 14:38:35;;;;;;;5.32;4.82;;;;;;;;;;4992209;28;20168;-79
2022/06/20 14:44:01;;;;;;;5.90;4.93;;;;;;;;;;4994402;28;20271;-79
2022/06/20 14:46:35;;;;;;;6.32;5.78;;;;;;;;;;4995345;28;20232;-79
2022/06/20 14:49:08;;;;;;;8.85;5.97;;;;;;;;;;4975512;28;20211;-79
2022/06/20 14:51:45;;;;;;;6.50;5.78;;;;;;;;;;4974092;28;20203;-79
2022/06/20 14:54:16;;;;;;;5.18;4.53;;;;;;;;;;4978174;28;20208;-79
2022/06/20 14:56:43;;;;;;;7.13;6.20;;;;;;;;;;4976126;28;20256;-80
2022/06/20 14:59:18;;;;;;;6.27;5.67;;;;;;;;;;4976073;28;20242;-79
2022/06/20 15:01:55;;;;;;;4.78;4.38;;;;;;;;;;4974574;28;20196;-79
2022/06/20 15:04:42;;;;;;;4.40;3.50;;;;;;;;;;4990233;28;20180;-79
2022/06/20 15:07:14;;;;;;;5.90;5.40;;;;;;;;;;4972705;28;20180;-79
2022/06/20 15:09:44;;;;;;;6.28;5.75;;;;;;;;;;4989930;28;20184;-80
2022/06/20 15:12:12;;;;;;;6.10;5.50;;;;;;;;;;4983680;28;20275;-79
2022/06/20 15:14:49;;;;;;;7.95;4.90;;;;;;;;;;4991204;28;20204;-80
2022/06/20 15:17:17;;;;;;;5.28;4.85;;;;;;;;;;4991769;28;20236;-81
2022/06/20 15:19:47;;;;;;;6.07;5.43;;;;;;;;;;4968856;28;20247;-80
2022/06/20 15:22:16;;;;;;;5.95;5.50;;;;;;;;;;4992744;28;21107;-80